createdAt,value
2016-03-15T00:00:24.514Z,1022.76
2016-03-15T00:01:24.516Z,1022.76
2016-03-15T00:02:24.519Z,1022.78
2016-03-15T00:03:24.536Z,1022.73
2016-03-15T00:04:24.540Z,1022.73
2016-03-15T00:05:24.542Z,1022.73
2016-03-15T00:06:24.545Z,1022.69
2016-03-15T00:07:24.552Z,1022.7
2016-03-15T00:08:24.571Z,1022.71
2016-03-15T00:09:24.574Z,1022.69
2016-03-15T00:10:24.576Z,1022.7
2016-03-15T00:11:24.580Z,1022.7
2016-03-15T00:12:24.582Z,1022.65
2016-03-15T00:13:24.601Z,1022.63
2016-03-15T00:14:24.603Z,1022.63
2016-03-15T00:15:24.606Z,1022.62
2016-03-15T00:16:24.624Z,1022.64
2016-03-15T00:17:24.627Z,1022.6
2016-03-15T00:18:24.629Z,1022.6
2016-03-15T00:19:24.632Z,1022.61
2016-03-15T00:20:24.650Z,1022.6
2016-03-15T00:21:24.637Z,1022.6
2016-03-15T00:22:24.656Z,1022.62
2016-03-15T00:23:24.658Z,1022.61
2016-03-15T00:24:24.662Z,1022.59
2016-03-15T00:25:24.679Z,1022.63
2016-03-15T00:26:24.681Z,1022.61
2016-03-15T00:27:24.684Z,1022.62
2016-03-15T00:28:24.687Z,1022.59
2016-03-15T00:29:24.706Z,1022.61
2016-03-15T00:30:24.709Z,1022.61
2016-03-15T00:31:24.711Z,1022.6
2016-03-15T00:32:24.714Z,1022.6
2016-03-15T00:33:24.717Z,1022.62
2016-03-15T00:34:24.735Z,1022.58
2016-03-15T00:35:24.739Z,1022.59
2016-03-15T00:36:24.742Z,1022.58
2016-03-15T00:37:24.744Z,1022.58
2016-03-15T00:38:24.747Z,1022.61
2016-03-15T00:39:24.764Z,1022.62
2016-03-15T00:40:24.767Z,1022.62
2016-03-15T00:41:24.770Z,1022.63
2016-03-15T00:42:24.789Z,1022.6
2016-03-15T00:43:24.792Z,1022.59
2016-03-15T00:44:24.794Z,1022.57
2016-03-15T00:45:33.828Z,1022.58
2016-03-15T00:46:24.797Z,1022.55
2016-03-15T00:47:24.814Z,1022.52
2016-03-15T00:48:24.833Z,1022.51
2016-03-15T00:49:24.819Z,1022.44
2016-03-15T00:50:24.839Z,1022.39
2016-03-15T00:51:24.842Z,1022.4
2016-03-15T00:52:24.844Z,1022.42
2016-03-15T00:53:24.847Z,1022.43
2016-03-15T00:54:24.849Z,1022.39
2016-03-15T00:55:24.852Z,1022.37
2016-03-15T00:56:24.860Z,1022.39
2016-03-15T00:57:24.879Z,1022.39
2016-03-15T00:58:24.881Z,1022.39
2016-03-15T00:59:24.884Z,1022.4
2016-03-15T01:00:24.886Z,1022.38
2016-03-15T01:01:24.904Z,1022.37
2016-03-15T01:02:24.906Z,1022.34
2016-03-15T01:03:24.910Z,1022.34
2016-03-15T01:04:24.912Z,1022.35
2016-03-15T01:05:24.931Z,1022.36
2016-03-15T01:06:24.933Z,1022.35
2016-03-15T01:07:24.952Z,1022.34
2016-03-15T01:08:24.939Z,1022.33
2016-03-15T01:09:24.942Z,1022.36
2016-03-15T01:10:24.960Z,1022.37
2016-03-15T01:11:24.963Z,1022.37
2016-03-15T01:12:24.966Z,1022.37
2016-03-15T01:13:24.983Z,1022.38
2016-03-15T01:14:25.002Z,1022.36
2016-03-15T01:15:24.989Z,1022.41
2016-03-15T01:16:24.991Z,1022.38
2016-03-15T01:17:24.994Z,1022.34
2016-03-15T01:18:24.997Z,1022.33
2016-03-15T01:19:25.015Z,1022.33
2016-03-15T01:20:25.018Z,1022.33
2016-03-15T01:21:25.021Z,1022.32
2016-03-15T01:22:25.039Z,1022.34
2016-03-15T01:23:25.041Z,1022.33
2016-03-15T01:24:25.044Z,1022.28
2016-03-15T01:25:25.047Z,1022.31
2016-03-15T01:26:25.049Z,1022.27
2016-03-15T01:27:25.068Z,1022.25
2016-03-15T01:28:25.087Z,1022.28
2016-03-15T01:29:25.073Z,1022.26
2016-03-15T01:30:25.076Z,1022.26
2016-03-15T01:31:25.095Z,1022.25
2016-03-15T01:32:25.097Z,1022.26
2016-03-15T01:33:25.100Z,1022.22
2016-03-15T01:34:25.103Z,1022.28
2016-03-15T01:35:25.120Z,1022.24
2016-03-15T01:36:25.124Z,1022.23
2016-03-15T01:37:25.126Z,1022.23
2016-03-15T01:38:25.128Z,1022.23
2016-03-15T01:39:25.132Z,1022.24
2016-03-15T01:40:25.150Z,1022.21
2016-03-15T01:41:25.152Z,1022.24
2016-03-15T01:42:25.156Z,1022.26
2016-03-15T01:43:25.158Z,1022.2
2016-03-15T01:44:25.177Z,1022.25
2016-03-15T01:45:25.179Z,1022.25
2016-03-15T01:46:25.182Z,1022.22
2016-03-15T01:47:25.184Z,1022.23
2016-03-15T01:48:25.203Z,1022.26
2016-03-15T01:49:25.205Z,1022.25
2016-03-15T01:50:25.207Z,1022.24
2016-03-15T01:51:25.211Z,1022.24
2016-03-15T01:52:25.213Z,1022.26
2016-03-15T01:53:25.232Z,1022.23
2016-03-15T01:54:25.235Z,1022.28
2016-03-15T01:55:25.237Z,1022.27
2016-03-15T01:56:25.240Z,1022.24
2016-03-15T01:57:25.258Z,1022.22
2016-03-15T01:58:25.260Z,1022.25
2016-03-15T01:59:25.263Z,1022.26
2016-03-15T02:00:25.282Z,1022.24
2016-03-15T02:01:25.269Z,1022.23
2016-03-15T02:02:25.287Z,1022.24
2016-03-15T02:03:25.289Z,1022.27
2016-03-15T02:04:25.309Z,1022.25
2016-03-15T02:05:25.295Z,1022.28
2016-03-15T02:06:25.314Z,1022.25
2016-03-15T02:07:25.316Z,1022.25
2016-03-15T02:08:25.334Z,1022.2
2016-03-15T02:09:25.322Z,1022.23
2016-03-15T02:10:25.340Z,1022.22
2016-03-15T02:11:25.342Z,1022.2
2016-03-15T02:12:25.345Z,1022.17
2016-03-15T02:13:25.364Z,1022.2
2016-03-15T02:14:25.366Z,1022.23
2016-03-15T02:15:25.369Z,1022.21
2016-03-15T02:16:25.372Z,1022.21
2016-03-15T02:17:25.374Z,1022.21
2016-03-15T02:18:25.377Z,1022.21
2016-03-15T02:19:25.396Z,1022.24
2016-03-15T02:20:25.399Z,1022.22
2016-03-15T02:21:25.402Z,1022.22
2016-03-15T02:22:25.404Z,1022.25
2016-03-15T02:23:25.422Z,1022.24
2016-03-15T02:24:25.424Z,1022.26
2016-03-15T02:25:25.427Z,1022.18
2016-03-15T02:26:25.430Z,1022.22
2016-03-15T02:27:25.432Z,1022.23
2016-03-15T02:28:25.451Z,1022.21
2016-03-15T02:29:25.453Z,1022.24
2016-03-15T02:30:25.456Z,1022.18
2016-03-15T02:31:25.459Z,1022.23
2016-03-15T02:32:25.476Z,1022.21
2016-03-15T02:33:25.479Z,1022.21
2016-03-15T02:34:25.482Z,1022.14
2016-03-15T02:35:25.485Z,1022.14
2016-03-15T02:36:25.504Z,1022.18
2016-03-15T02:37:25.507Z,1022.12
2016-03-15T02:38:25.509Z,1022.15
2016-03-15T02:39:25.512Z,1022.11
2016-03-15T02:40:25.530Z,1022.16
2016-03-15T02:41:25.533Z,1022.14
2016-03-15T02:42:25.535Z,1022.13
2016-03-15T02:43:25.538Z,1022.12
2016-03-15T02:44:25.556Z,1022.14
2016-03-15T02:45:25.558Z,1022.16
2016-03-15T02:46:25.562Z,1022.14
2016-03-15T02:47:25.564Z,1022.13
2016-03-15T02:48:25.567Z,1022.14
2016-03-15T02:49:25.586Z,1022.14
2016-03-15T02:50:25.588Z,1022.17
2016-03-15T02:51:25.591Z,1022.19
2016-03-15T02:52:25.593Z,1022.21
2016-03-15T02:53:25.612Z,1022.2
2016-03-15T02:54:25.615Z,1022.22
2016-03-15T02:55:25.618Z,1022.18
2016-03-15T02:56:25.636Z,1022.2
2016-03-15T02:57:25.623Z,1022.18
2016-03-15T02:58:25.641Z,1022.19
2016-03-15T02:59:25.643Z,1022.19
2016-03-15T03:00:25.646Z,1022.16
2016-03-15T03:01:25.649Z,1022.14
2016-03-15T03:02:25.667Z,1022.11
2016-03-15T03:03:25.670Z,1022.12
2016-03-15T03:04:25.672Z,1022.13
2016-03-15T03:05:25.675Z,1022.14
2016-03-15T03:06:25.693Z,1022.11
2016-03-15T03:07:25.696Z,1022.1
2016-03-15T03:08:25.698Z,1022.11
2016-03-15T03:09:25.702Z,1022.08
2016-03-15T03:10:25.704Z,1022.06
2016-03-15T03:11:25.723Z,1022.09
2016-03-15T03:12:25.725Z,1022.09
2016-03-15T03:13:25.728Z,1022.06
2016-03-15T03:14:25.731Z,1022.03
2016-03-15T03:15:25.749Z,1022.02
2016-03-15T03:16:25.752Z,1021.99
2016-03-15T03:17:25.754Z,1021.96
2016-03-15T03:18:25.757Z,1021.97
2016-03-15T03:19:25.760Z,1022
2016-03-15T03:20:25.793Z,1022.02
2016-03-15T03:21:25.781Z,1022.03
2016-03-15T03:22:25.816Z,1022.01
2016-03-15T03:23:25.786Z,1021.97
2016-03-15T03:24:25.805Z,1022.01
2016-03-15T03:25:25.808Z,1021.99
2016-03-15T03:26:25.810Z,1021.92
2016-03-15T03:27:25.813Z,1021.91
2016-03-15T03:28:25.831Z,1021.92
2016-03-15T03:29:25.834Z,1021.88
2016-03-15T03:30:25.837Z,1021.92
2016-03-15T03:31:25.840Z,1021.9
2016-03-15T03:32:25.842Z,1021.87
2016-03-15T03:33:25.859Z,1021.85
2016-03-15T03:34:25.863Z,1021.84
2016-03-15T03:35:25.865Z,1021.8
2016-03-15T03:36:25.868Z,1021.8
2016-03-15T03:37:25.887Z,1021.81
2016-03-15T03:38:25.889Z,1021.8
2016-03-15T03:39:25.892Z,1021.82
2016-03-15T03:40:25.910Z,1021.81
2016-03-15T03:41:25.897Z,1021.79
2016-03-15T03:42:25.915Z,1021.83
2016-03-15T03:43:25.917Z,1021.77
2016-03-15T03:44:25.920Z,1021.77
2016-03-15T03:45:25.923Z,1021.77
2016-03-15T03:46:25.942Z,1021.78
2016-03-15T03:47:25.944Z,1021.74
2016-03-15T03:48:25.947Z,1021.76
2016-03-15T03:49:25.950Z,1021.73
2016-03-15T03:50:25.968Z,1021.72
2016-03-15T03:51:25.971Z,1021.69
2016-03-15T03:52:25.974Z,1021.67
2016-03-15T03:53:25.977Z,1021.63
2016-03-15T03:54:25.979Z,1021.66
2016-03-15T03:55:25.997Z,1021.65
2016-03-15T03:56:25.999Z,1021.63
2016-03-15T03:57:26.003Z,1021.63
2016-03-15T03:58:26.005Z,1021.66
2016-03-15T03:59:26.023Z,1021.65
2016-03-15T04:00:26.043Z,1021.64
2016-03-15T04:01:26.029Z,1021.59
2016-03-15T04:02:26.032Z,1021.63
2016-03-15T04:03:26.051Z,1021.59
2016-03-15T04:04:26.053Z,1021.57
2016-03-15T04:05:26.056Z,1021.54
2016-03-15T04:06:26.058Z,1021.57
2016-03-15T04:07:26.061Z,1021.57
2016-03-15T04:08:26.078Z,1021.57
2016-03-15T04:09:26.082Z,1021.62
2016-03-15T04:10:26.100Z,1021.61
2016-03-15T04:11:26.087Z,1021.63
2016-03-15T04:12:26.090Z,1021.67
2016-03-15T04:13:26.108Z,1021.69
2016-03-15T04:14:26.111Z,1021.72
2016-03-15T04:15:26.114Z,1021.68
2016-03-15T04:16:26.131Z,1021.71
2016-03-15T04:17:26.134Z,1021.69
2016-03-15T04:18:26.137Z,1021.73
2016-03-15T04:19:26.139Z,1021.72
2016-03-15T04:20:26.143Z,1021.74
2016-03-15T04:21:26.150Z,1021.73
2016-03-15T04:22:26.152Z,1021.74
2016-03-15T04:23:26.171Z,1021.76
2016-03-15T04:24:26.174Z,1021.76
2016-03-15T04:25:26.177Z,1021.76
2016-03-15T04:26:26.179Z,1021.77
2016-03-15T04:27:26.182Z,1021.74
2016-03-15T04:28:26.200Z,1021.7
2016-03-15T04:29:26.204Z,1021.72
2016-03-15T04:30:26.206Z,1021.73
2016-03-15T04:31:26.254Z,1021.72
2016-03-15T04:32:26.227Z,1021.69
2016-03-15T04:33:26.229Z,1021.74
2016-03-15T04:34:26.232Z,1021.73
2016-03-15T04:35:26.239Z,1021.71
2016-03-15T04:36:26.241Z,1021.72
2016-03-15T04:37:26.259Z,1021.67
2016-03-15T04:38:26.263Z,1021.69
2016-03-15T04:39:26.265Z,1021.69
2016-03-15T04:40:26.268Z,1021.7
2016-03-15T04:41:26.271Z,1021.68
2016-03-15T04:42:26.288Z,1021.69
2016-03-15T04:43:26.291Z,1021.68
2016-03-15T04:44:26.294Z,1021.67
2016-03-15T04:45:26.296Z,1021.71
2016-03-15T04:46:26.315Z,1021.69
2016-03-15T04:47:26.318Z,1021.77
2016-03-15T04:48:26.320Z,1021.78
2016-03-15T04:49:26.324Z,1021.8
2016-03-15T04:50:26.326Z,1021.77
2016-03-15T04:51:26.328Z,1021.8
2016-03-15T04:52:26.348Z,1021.81
2016-03-15T04:53:26.350Z,1021.81
2016-03-15T04:54:26.352Z,1021.81
2016-03-15T04:55:26.370Z,1021.81
2016-03-15T04:56:26.373Z,1021.81
2016-03-15T04:57:26.375Z,1021.82
2016-03-15T04:58:26.379Z,1021.81
2016-03-15T04:59:26.381Z,1021.79
2016-03-15T05:00:26.383Z,1021.81
2016-03-15T05:01:26.403Z,1021.8
2016-03-15T05:02:26.405Z,1021.8
2016-03-15T05:03:26.407Z,1021.79
2016-03-15T05:04:26.411Z,1021.79
2016-03-15T05:05:26.428Z,1021.78
2016-03-15T05:06:26.431Z,1021.76
2016-03-15T05:07:26.434Z,1021.78
2016-03-15T05:08:26.436Z,1021.8
2016-03-15T05:09:26.439Z,1021.78
2016-03-15T05:10:26.458Z,1021.78
2016-03-15T05:11:26.460Z,1021.8
2016-03-15T05:12:26.463Z,1021.8
2016-03-15T05:13:26.466Z,1021.76
2016-03-15T05:14:26.484Z,1021.79
2016-03-15T05:15:26.487Z,1021.73
2016-03-15T05:16:26.490Z,1021.75
2016-03-15T05:17:26.492Z,1021.72
2016-03-15T05:18:26.495Z,1021.68
2016-03-15T05:19:26.513Z,1021.69
2016-03-15T05:20:26.515Z,1021.7
2016-03-15T05:21:26.518Z,1021.75
2016-03-15T05:22:26.521Z,1021.71
2016-03-15T05:23:26.523Z,1021.72
2016-03-15T05:24:26.543Z,1021.71
2016-03-15T05:25:26.545Z,1021.73
2016-03-15T05:26:26.547Z,1021.72
2016-03-15T05:27:26.551Z,1021.73
2016-03-15T05:28:26.569Z,1021.73
2016-03-15T05:29:26.572Z,1021.75
2016-03-15T05:30:26.574Z,1021.73
2016-03-15T05:31:26.592Z,1021.76
2016-03-15T05:32:26.580Z,1021.77
2016-03-15T05:33:26.598Z,1021.78
2016-03-15T05:34:26.600Z,1021.79
2016-03-15T05:35:26.619Z,1021.79
2016-03-15T05:36:26.606Z,1021.79
2016-03-15T05:37:26.624Z,1021.82
2016-03-15T05:38:26.627Z,1021.8
2016-03-15T05:39:26.629Z,1021.85
2016-03-15T05:40:26.632Z,1021.84
2016-03-15T05:41:26.635Z,1021.85
2016-03-15T05:42:26.653Z,1021.89
2016-03-15T05:43:26.655Z,1021.87
2016-03-15T05:44:26.658Z,1021.87
2016-03-15T05:45:26.677Z,1021.89
2016-03-15T05:46:26.679Z,1021.83
2016-03-15T05:47:26.682Z,1021.87
2016-03-15T05:48:26.684Z,1021.86
2016-03-15T05:49:26.688Z,1021.85
2016-03-15T05:50:26.690Z,1021.87
2016-03-15T05:51:26.709Z,1021.93
2016-03-15T05:52:26.712Z,1021.89
2016-03-15T05:53:26.714Z,1021.92
2016-03-15T05:54:26.717Z,1021.94
2016-03-15T05:55:26.735Z,1021.95
2016-03-15T05:56:26.737Z,1021.91
2016-03-15T05:57:26.740Z,1021.95
2016-03-15T05:58:26.743Z,1021.95
2016-03-15T05:59:26.745Z,1021.86
2016-03-15T06:00:26.764Z,1021.88
2016-03-15T06:01:26.767Z,1021.88
2016-03-15T06:02:26.769Z,1021.91
2016-03-15T06:03:26.772Z,1021.89
2016-03-15T06:04:26.791Z,1021.88
2016-03-15T06:05:26.793Z,1021.89
2016-03-15T06:06:26.796Z,1021.88
2016-03-15T06:07:26.793Z,1021.85
2016-03-15T06:08:26.780Z,1021.86
2016-03-15T06:09:26.783Z,1021.85
2016-03-15T06:10:26.770Z,1021.87
2016-03-15T06:11:26.757Z,1021.84
2016-03-15T06:12:26.749Z,1021.84
2016-03-15T06:13:26.762Z,1021.85
2016-03-15T06:14:26.759Z,1021.88
2016-03-15T06:15:26.756Z,1021.92
2016-03-15T06:16:26.753Z,1021.95
2016-03-15T06:17:26.753Z,1021.99
2016-03-15T06:18:26.768Z,1021.99
2016-03-15T06:19:26.768Z,1021.96
2016-03-15T06:20:26.768Z,1021.96
2016-03-15T06:21:26.769Z,1021.99
2016-03-15T06:22:26.770Z,1021.97
2016-03-15T06:23:26.787Z,1021.95
2016-03-15T06:24:26.790Z,1021.98
2016-03-15T06:25:26.791Z,1021.99
2016-03-15T06:26:26.793Z,1021.99
2016-03-15T06:27:26.812Z,1021.98
2016-03-15T06:28:26.814Z,1022
2016-03-15T06:29:26.817Z,1022.01
2016-03-15T06:30:26.835Z,1021.97
2016-03-15T06:31:26.837Z,1021.97
2016-03-15T06:32:26.840Z,1021.87
2016-03-15T06:33:26.843Z,1021.86
2016-03-15T06:34:26.845Z,1021.83
2016-03-15T06:35:26.849Z,1021.78
2016-03-15T06:36:26.867Z,1021.74
2016-03-15T06:37:26.870Z,1021.64
2016-03-15T06:38:26.872Z,1021.65
2016-03-15T06:39:26.875Z,1021.64
2016-03-15T06:40:26.893Z,1021.61
2016-03-15T06:41:26.896Z,1021.64
2016-03-15T06:42:26.914Z,1021.62
2016-03-15T06:43:26.916Z,1021.66
2016-03-15T06:44:26.905Z,1021.6
2016-03-15T06:45:26.922Z,1021.62
2016-03-15T06:46:26.925Z,1021.61
2016-03-15T06:47:26.927Z,1021.65
2016-03-15T06:48:26.930Z,1021.68
2016-03-15T06:49:26.949Z,1021.71
2016-03-15T06:50:26.951Z,1021.69
2016-03-15T06:51:26.954Z,1021.77
2016-03-15T06:52:26.971Z,1021.69
2016-03-15T06:53:27.006Z,1021.69
2016-03-15T06:54:26.977Z,1021.59
2016-03-15T06:55:26.980Z,1021.58
2016-03-15T06:56:26.982Z,1021.53
2016-03-15T06:57:27.001Z,1021.53
2016-03-15T06:58:27.004Z,1021.51
2016-03-15T06:59:27.006Z,1021.48
2016-03-15T07:00:27.009Z,1021.48
2016-03-15T07:01:27.028Z,1021.46
2016-03-15T07:02:27.031Z,1021.52
2016-03-15T07:03:27.034Z,1021.56
2016-03-15T07:04:27.036Z,1021.58
2016-03-15T07:05:27.054Z,1021.61
2016-03-15T07:06:27.057Z,1021.63
2016-03-15T07:07:27.063Z,1021.63
2016-03-15T07:08:27.066Z,1021.67
2016-03-15T07:09:27.069Z,1021.71
2016-03-15T07:10:27.071Z,1021.74
2016-03-15T07:11:27.090Z,1021.72
2016-03-15T07:12:27.093Z,1021.74
2016-03-15T07:13:27.095Z,1021.81
2016-03-15T07:14:27.098Z,1021.82
2016-03-15T07:15:27.116Z,1021.79
2016-03-15T07:16:27.119Z,1021.71
2016-03-15T07:17:27.121Z,1021.71
2016-03-15T07:18:27.124Z,1021.7
2016-03-15T07:19:27.143Z,1021.75
2016-03-15T07:20:27.145Z,1021.74
2016-03-15T07:21:27.148Z,1021.72
2016-03-15T07:22:27.166Z,1021.69
2016-03-15T07:23:27.169Z,1021.69
2016-03-15T07:24:27.172Z,1021.69
2016-03-15T07:25:27.175Z,1021.7
2016-03-15T07:26:27.177Z,1021.71
2016-03-15T07:27:27.195Z,1021.77
2016-03-15T07:28:27.198Z,1021.71
2016-03-15T07:29:27.200Z,1021.69
2016-03-15T07:30:27.203Z,1021.69
2016-03-15T07:31:27.222Z,1021.67
2016-03-15T07:32:27.224Z,1021.68
2016-03-15T07:33:27.227Z,1021.69
2016-03-15T07:34:27.246Z,1021.68
2016-03-15T07:35:27.248Z,1021.69
2016-03-15T07:36:27.252Z,1021.73
2016-03-15T07:37:27.254Z,1021.73
2016-03-15T07:38:27.271Z,1021.75
2016-03-15T07:39:27.275Z,1021.75
2016-03-15T07:40:27.277Z,1021.77
2016-03-15T07:41:27.279Z,1021.74
2016-03-15T07:42:27.298Z,1021.81
2016-03-15T07:43:27.301Z,1021.8
2016-03-15T07:44:27.303Z,1021.83
2016-03-15T07:45:27.322Z,1021.8
2016-03-15T07:46:27.324Z,1021.77
2016-03-15T07:47:27.326Z,1021.86
2016-03-15T07:48:27.330Z,1021.81
2016-03-15T07:49:27.348Z,1021.81
2016-03-15T07:50:27.351Z,1021.81
2016-03-15T07:51:27.353Z,1021.79
2016-03-15T07:52:27.356Z,1021.74
2016-03-15T07:53:27.375Z,1021.75
2016-03-15T07:54:27.378Z,1021.75
2016-03-15T07:55:27.380Z,1021.76
2016-03-15T07:56:27.383Z,1021.79
2016-03-15T07:57:27.400Z,1021.77
2016-03-15T07:58:27.403Z,1021.74
2016-03-15T07:59:27.406Z,1021.75
2016-03-15T08:00:27.424Z,1021.82
2016-03-15T08:01:27.428Z,1021.87
2016-03-15T08:02:27.430Z,1021.92
2016-03-15T08:03:27.433Z,1021.92
2016-03-15T08:04:27.451Z,1021.9
2016-03-15T08:05:27.454Z,1021.91
2016-03-15T08:06:27.457Z,1021.9
2016-03-15T08:07:27.459Z,1021.9
2016-03-15T08:08:27.477Z,1021.9
2016-03-15T08:09:27.479Z,1021.85
2016-03-15T08:10:27.499Z,1021.81
2016-03-15T08:11:27.501Z,1021.78
2016-03-15T08:12:27.504Z,1021.78
2016-03-15T08:13:27.507Z,1021.79
2016-03-15T08:14:27.524Z,1021.84
2016-03-15T08:15:27.527Z,1021.82
2016-03-15T08:16:27.530Z,1021.74
2016-03-15T08:17:27.548Z,1021.71
2016-03-15T08:18:27.551Z,1021.69
2016-03-15T08:19:27.554Z,1021.7
2016-03-15T08:20:27.572Z,1021.65
2016-03-15T08:21:27.576Z,1021.62
2016-03-15T08:22:27.578Z,1021.64
2016-03-15T08:23:27.596Z,1021.67
2016-03-15T08:24:27.599Z,1021.66
2016-03-15T08:25:27.601Z,1021.62
2016-03-15T08:26:27.603Z,1021.59
2016-03-15T08:27:27.622Z,1021.57
2016-03-15T08:28:27.625Z,1021.57
2016-03-15T08:29:27.627Z,1021.61
2016-03-15T08:30:27.647Z,1021.58
2016-03-15T08:31:27.649Z,1021.59
2016-03-15T08:32:27.651Z,1021.83
2016-03-15T08:33:27.655Z,1021.84
2016-03-15T08:34:27.672Z,1021.82
2016-03-15T08:35:27.674Z,1021.77
2016-03-15T08:36:27.694Z,1021.96
2016-03-15T08:37:27.696Z,1021.7
2016-03-15T08:38:27.699Z,1021.71
2016-03-15T08:39:27.717Z,1021.67
2016-03-15T08:40:27.719Z,1021.59
2016-03-15T08:41:27.722Z,1021.58
2016-03-15T08:42:27.741Z,1021.52
2016-03-15T08:43:27.743Z,1021.56
2016-03-15T08:44:27.746Z,1021.48
2016-03-15T08:45:27.765Z,1021.5
2016-03-15T08:46:27.767Z,1021.57
2016-03-15T08:47:27.785Z,1021.59
2016-03-15T08:48:27.788Z,1021.55
2016-03-15T08:49:27.791Z,1021.56
2016-03-15T08:50:27.794Z,1021.54
2016-03-15T08:51:27.812Z,1021.58
2016-03-15T08:52:27.814Z,1021.5
2016-03-15T08:53:27.817Z,1021.54
2016-03-15T08:54:27.836Z,1021.55
2016-03-15T08:55:27.838Z,1021.56
2016-03-15T08:56:27.842Z,1021.58
2016-03-15T08:57:27.859Z,1021.53
2016-03-15T08:58:27.861Z,1021.51
2016-03-15T08:59:27.864Z,1021.58
2016-03-15T09:00:27.867Z,1021.58
2016-03-15T09:01:27.886Z,1021.54
2016-03-15T09:02:27.888Z,1021.54
2016-03-15T09:03:27.891Z,1021.53
2016-03-15T09:04:27.909Z,1021.5
2016-03-15T09:05:27.912Z,1021.57
2016-03-15T09:06:27.914Z,1021.56
2016-03-15T09:07:27.917Z,1021.56
2016-03-15T09:08:27.936Z,1021.54
2016-03-15T09:09:27.938Z,1021.5
2016-03-15T09:10:27.940Z,1021.48
2016-03-15T09:11:27.960Z,1021.45
2016-03-15T09:12:27.962Z,1021.47
2016-03-15T09:13:27.965Z,1021.44
2016-03-15T09:14:27.983Z,1021.36
2016-03-15T09:15:27.985Z,1021.36
2016-03-15T09:16:27.988Z,1021.28
2016-03-15T09:17:27.991Z,1021.2
2016-03-15T09:18:28.009Z,1021.16
2016-03-15T09:19:28.012Z,1021.06
2016-03-15T09:20:28.015Z,1021.03
2016-03-15T09:21:28.033Z,1021
2016-03-15T09:22:28.037Z,1020.98
2016-03-15T09:23:28.039Z,1021.01
2016-03-15T09:24:28.041Z,1021.05
2016-03-15T09:25:28.060Z,1021.1
2016-03-15T09:26:28.062Z,1021.13
2016-03-15T09:27:28.064Z,1021.21
2016-03-15T09:28:28.083Z,1021.23
2016-03-15T09:29:28.086Z,1021.22
2016-03-15T09:30:28.088Z,1021.22
2016-03-15T09:31:28.107Z,1021.21
2016-03-15T09:32:28.109Z,1021.22
2016-03-15T09:33:28.111Z,1021.22
2016-03-15T09:34:28.115Z,1021.22
2016-03-15T09:35:28.133Z,1021.27
2016-03-15T09:36:28.135Z,1021.36
2016-03-15T09:37:28.139Z,1021.41
2016-03-15T09:38:28.157Z,1021.39
2016-03-15T09:39:28.160Z,1021.35
2016-03-15T09:40:28.163Z,1021.36
2016-03-15T09:41:28.180Z,1021.34
2016-03-15T09:42:28.183Z,1021.31
2016-03-15T09:43:28.186Z,1021.31
2016-03-15T09:44:28.188Z,1021.28
2016-03-15T09:45:28.207Z,1021.29
2016-03-15T09:46:28.209Z,1021.35
2016-03-15T09:47:28.213Z,1021.34
2016-03-15T09:48:28.231Z,1021.39
2016-03-15T09:49:28.233Z,1021.39
2016-03-15T09:50:28.237Z,1021.35
2016-03-15T09:51:28.239Z,1021.39
2016-03-15T09:52:28.256Z,1021.35
2016-03-15T09:53:28.260Z,1021.28
2016-03-15T09:54:28.262Z,1021.26
2016-03-15T09:55:28.281Z,1021.28
2016-03-15T09:56:28.284Z,1021.28
2016-03-15T09:57:28.301Z,1021.34
2016-03-15T09:58:28.304Z,1021.42
2016-03-15T09:59:28.307Z,1021.45
2016-03-15T10:00:28.309Z,1021.43
2016-03-15T10:01:28.312Z,1021.47
2016-03-15T10:02:28.331Z,1021.52
2016-03-15T10:03:28.333Z,1021.48
2016-03-15T10:04:28.336Z,1021.38
2016-03-15T10:05:28.355Z,1021.34
2016-03-15T10:06:28.357Z,1021.42
2016-03-15T10:07:28.360Z,1021.44
2016-03-15T10:08:28.378Z,1021.46
2016-03-15T10:09:28.385Z,1021.41
2016-03-15T10:10:28.388Z,1021.46
2016-03-15T10:11:28.391Z,1021.42
2016-03-15T10:12:28.394Z,1021.42
2016-03-15T10:13:28.412Z,1021.38
2016-03-15T10:14:28.415Z,1021.37
2016-03-15T10:15:28.418Z,1021.33
2016-03-15T10:16:28.435Z,1021.31
2016-03-15T10:17:28.438Z,1021.31
2016-03-15T10:18:28.441Z,1021.3
2016-03-15T10:19:28.443Z,1021.31
2016-03-15T10:20:28.462Z,1021.31
2016-03-15T10:21:28.465Z,1021.34
2016-03-15T10:22:28.467Z,1021.39
2016-03-15T10:23:28.486Z,1021.4
2016-03-15T10:24:28.504Z,1021.36
2016-03-15T10:25:28.492Z,1021.33
2016-03-15T10:26:28.509Z,1021.36
2016-03-15T10:27:28.512Z,1021.39
2016-03-15T10:28:28.515Z,1021.31
2016-03-15T10:29:28.517Z,1021.29
2016-03-15T10:30:28.536Z,1021.28
2016-03-15T10:31:28.539Z,1021.23
2016-03-15T10:32:28.541Z,1021.27
2016-03-15T10:33:28.560Z,1021.29
2016-03-15T10:34:28.563Z,1021.27
2016-03-15T10:35:28.565Z,1021.31
2016-03-15T10:36:28.568Z,1021.26
2016-03-15T10:37:28.586Z,1021.24
2016-03-15T10:38:28.588Z,1021.28
2016-03-15T10:39:28.591Z,1021.31
2016-03-15T10:40:28.610Z,1021.29
2016-03-15T10:41:28.613Z,1021.29
2016-03-15T10:42:28.615Z,1021.34
2016-03-15T10:43:28.618Z,1021.4
2016-03-15T10:44:28.683Z,1021.37
2016-03-15T10:45:28.638Z,1021.44
2016-03-15T10:46:28.641Z,1021.39
2016-03-15T10:47:28.660Z,1021.44
2016-03-15T10:48:28.662Z,1021.43
2016-03-15T10:49:28.682Z,1021.42
2016-03-15T10:50:28.684Z,1021.45
2016-03-15T10:51:28.686Z,1021.47
2016-03-15T10:52:28.689Z,1021.44
2016-03-15T10:53:28.707Z,1021.43
2016-03-15T10:54:28.709Z,1021.37
2016-03-15T10:55:28.712Z,1021.37
2016-03-15T10:56:28.731Z,1021.3
2016-03-15T10:57:28.734Z,1021.23
2016-03-15T10:58:28.736Z,1021.21
2016-03-15T10:59:28.739Z,1021.19
2016-03-15T11:00:28.758Z,1021.16
2016-03-15T11:01:28.760Z,1021.2
2016-03-15T11:02:28.763Z,1021.24
2016-03-15T11:03:28.765Z,1021.3
2016-03-15T11:04:28.784Z,1021.26
2016-03-15T11:05:28.787Z,1021.28
2016-03-15T11:06:28.805Z,1021.29
2016-03-15T11:07:28.808Z,1021.27
2016-03-15T11:08:28.810Z,1021.29
2016-03-15T11:09:28.813Z,1021.28
2016-03-15T11:10:28.830Z,1021.28
2016-03-15T11:11:28.833Z,1021.23
2016-03-15T11:12:28.836Z,1021.2
2016-03-15T11:13:28.839Z,1021.19
2016-03-15T11:14:28.858Z,1021.16
2016-03-15T11:15:28.860Z,1021.18
2016-03-15T11:16:28.862Z,1021.08
2016-03-15T11:17:28.881Z,1021.03
2016-03-15T11:18:28.884Z,1020.95
2016-03-15T11:19:28.886Z,1020.94
2016-03-15T11:20:28.905Z,1021.03
2016-03-15T11:21:28.907Z,1021.07
2016-03-15T11:22:28.910Z,1021.03
2016-03-15T11:23:28.913Z,1020.97
2016-03-15T11:24:28.931Z,1020.88
2016-03-15T11:25:28.934Z,1020.85
2016-03-15T11:26:28.936Z,1020.84
2016-03-15T11:27:28.955Z,1020.91
2016-03-15T11:28:28.958Z,1020.92
2016-03-15T11:29:28.961Z,1020.97
2016-03-15T11:30:28.963Z,1020.93
2016-03-15T11:31:28.981Z,1021.02
2016-03-15T11:32:28.984Z,1021
2016-03-15T11:33:28.986Z,1021.03
2016-03-15T11:34:29.005Z,1021.04
2016-03-15T11:35:29.008Z,1021.03
2016-03-15T11:36:29.010Z,1020.94
2016-03-15T11:37:29.014Z,1020.98
2016-03-15T11:38:29.031Z,1021.04
2016-03-15T11:39:29.034Z,1021
2016-03-15T11:40:29.053Z,1021.05
2016-03-15T11:41:29.055Z,1020.98
2016-03-15T11:42:29.058Z,1020.98
2016-03-15T11:43:29.060Z,1020.91
2016-03-15T11:44:29.063Z,1020.86
2016-03-15T11:45:29.082Z,1020.85
2016-03-15T11:46:29.084Z,1020.95
2016-03-15T11:47:29.087Z,1020.93
2016-03-15T11:48:29.090Z,1020.89
2016-03-15T11:49:29.107Z,1020.88
2016-03-15T11:50:29.110Z,1020.88
2016-03-15T11:51:29.113Z,1020.93
2016-03-15T11:52:29.115Z,1020.98
2016-03-15T11:53:29.135Z,1020.91
2016-03-15T11:54:29.137Z,1020.92
2016-03-15T11:55:29.139Z,1020.94
2016-03-15T11:56:29.159Z,1020.93
2016-03-15T11:57:29.161Z,1020.92
2016-03-15T11:58:29.163Z,1020.87
2016-03-15T11:59:29.181Z,1020.83
2016-03-15T12:00:29.184Z,1020.77
2016-03-15T12:01:29.187Z,1020.74
2016-03-15T12:02:29.189Z,1020.77
2016-03-15T12:03:29.208Z,1020.75
2016-03-15T12:04:29.211Z,1020.73
2016-03-15T12:05:29.213Z,1020.78
2016-03-15T12:06:29.231Z,1020.71
2016-03-15T12:07:29.234Z,1020.78
2016-03-15T12:08:29.236Z,1020.76